sensor_id;sensor_type;location;lat;lon;timestamp;P1;durP1;ratioP1;P2;durP2;ratioP2
6642;SDS011;3357;48.050;7.800;2022-10-17T00:00:37;6.33;;;2.50;;
6642;SDS011;3357;48.050;7.800;2022-10-17T00:03:02;8.37;;;3.63;;
6642;SDS011;3357;48.050;7.800;2022-10-17T00:05:28;6.10;;;2.50;;
6642;SDS011;3357;48.050;7.800;2022-10-17T00:07:53;9.33;;;2.63;;
6642;SDS011;3357;48.050;7.800;2022-10-17T00:10:21;6.20;;;2.47;;
6642;SDS011;3357;48.050;7.800;2022-10-17T00:12:46;6.03;;;2.47;;
6642;SDS011;3357;48.050;7.800;2022-10-17T00:15:16;4.83;;;2.50;;
6642;SDS011;3357;48.050;7.800;2022-10-17T00:17:42;3.53;;;2.90;;
6642;SDS011;3357;48.050;7.800;2022-10-17T00:20:07;15.23;;;2.83;;
6642;SDS011;3357;48.050;7.800;2022-10-17T00:22:33;10.67;;;2.40;;
6642;SDS011;3357;48.050;7.800;2022-10-17T00:24:58;13.50;;;3.03;;
6642;SDS011;3357;48.050;7.800;2022-10-17T00:27:24;17.27;;;2.97;;
6642;SDS011;3357;48.050;7.800;2022-10-17T00:29:49;3.40;;;2.20;;
6642;SDS011;3357;48.050;7.800;2022-10-17T00:32:15;8.50;;;2.50;;
6642;SDS011;3357;48.050;7.800;2022-10-17T00:34:41;5.80;;;2.63;;
6642;SDS011;3357;48.050;7.800;2022-10-17T00:37:06;9.73;;;2.70;;
6642;SDS011;3357;48.050;7.800;2022-10-17T00:39:31;5.63;;;3.00;;
6642;SDS011;3357;48.050;7.800;2022-10-17T00:41:57;3.40;;;2.30;;
6642;SDS011;3357;48.050;7.800;2022-10-17T00:46:54;2.10;;;1.97;;
6642;SDS011;3357;48.050;7.800;2022-10-17T00:49:23;2.60;;;2.17;;
6642;SDS011;3357;48.050;7.800;2022-10-17T00:51:55;6.63;;;1.70;;
6642;SDS011;3357;48.050;7.800;2022-10-17T00:54:26;9.27;;;2.47;;
6642;SDS011;3357;48.050;7.800;2022-10-17T00:56:54;4.53;;;1.80;;
6642;SDS011;3357;48.050;7.800;2022-10-17T00:59:19;2.13;;;1.73;;
6642;SDS011;3357;48.050;7.800;2022-10-17T01:02:07;6.93;;;1.67;;
6642;SDS011;3357;48.050;7.800;2022-10-17T01:04:36;9.10;;;2.10;;
6642;SDS011;3357;48.050;7.800;2022-10-17T01:07:01;6.03;;;1.37;;
6642;SDS011;3357;48.050;7.800;2022-10-17T01:09:27;1.57;;;1.47;;
6642;SDS011;3357;48.050;7.800;2022-10-17T01:12:01;4.20;;;1.53;;
6642;SDS011;3357;48.050;7.800;2022-10-17T01:14:33;7.80;;;1.63;;
6642;SDS011;3357;48.050;7.800;2022-10-17T01:25:27;6.30;;;1.93;;
6642;SDS011;3357;48.050;7.800;2022-10-17T01:28:13;4.90;;;1.40;;
6642;SDS011;3357;48.050;7.800;2022-10-17T01:36:35;6.73;;;2.77;;
6642;SDS011;3357;48.050;7.800;2022-10-17T01:41:45;3.13;;;2.23;;
6642;SDS011;3357;48.050;7.800;2022-10-17T01:44:18;7.60;;;2.10;;
6642;SDS011;3357;48.050;7.800;2022-10-17T01:46:53;6.40;;;2.43;;
6642;SDS011;3357;48.050;7.800;2022-10-17T01:49:23;7.67;;;2.67;;
6642;SDS011;3357;48.050;7.800;2022-10-17T01:51:56;5.67;;;2.00;;
6642;SDS011;3357;48.050;7.800;2022-10-17T01:56:51;6.80;;;3.17;;
6642;SDS011;3357;48.050;7.800;2022-10-17T01:59:21;3.03;;;2.23;;
6642;SDS011;3357;48.050;7.800;2022-10-17T02:01:49;2.50;;;2.30;;
6642;SDS011;3357;48.050;7.800;2022-10-17T02:04:16;5.87;;;2.87;;
6642;SDS011;3357;48.050;7.800;2022-10-17T02:06:42;7.80;;;2.57;;
6642;SDS011;3357;48.050;7.800;2022-10-17T02:09:18;4.80;;;2.50;;
6642;SDS011;3357;48.050;7.800;2022-10-17T02:12:03;9.37;;;2.80;;
6642;SDS011;3357;48.050;7.800;2022-10-17T02:17:08;5.07;;;2.63;;
6642;SDS011;3357;48.050;7.800;2022-10-17T02:19:58;7.53;;;2.77;;
6642;SDS011;3357;48.050;7.800;2022-10-17T02:25:13;5.73;;;2.50;;
6642;SDS011;3357;48.050;7.800;2022-10-17T02:27:51;3.73;;;2.50;;
6642;SDS011;3357;48.050;7.800;2022-10-17T02:30:36;4.57;;;2.10;;
6642;SDS011;3357;48.050;7.800;2022-10-17T02:33:09;5.97;;;2.13;;
6642;SDS011;3357;48.050;7.800;2022-10-17T02:35:37;5.40;;;2.70;;
6642;SDS011;3357;48.050;7.800;2022-10-17T02:38:05;4.30;;;3.13;;
6642;SDS011;3357;48.050;7.800;2022-10-17T02:40:32;16.50;;;4.03;;
6642;SDS011;3357;48.050;7.800;2022-10-17T02:42:59;9.40;;;5.00;;
6642;SDS011;3357;48.050;7.800;2022-10-17T02:45:27;8.47;;;4.33;;
6642;SDS011;3357;48.050;7.800;2022-10-17T02:54:04;8.03;;;3.20;;
6642;SDS011;3357;48.050;7.800;2022-10-17T02:56:36;3.50;;;2.37;;
6642;SDS011;3357;48.050;7.800;2022-10-17T02:59:05;4.43;;;1.93;;
6642;SDS011;3357;48.050;7.800;2022-10-17T03:01:31;14.20;;;2.70;;
6642;SDS011;3357;48.050;7.800;2022-10-17T03:06:33;1.80;;;1.70;;
6642;SDS011;3357;48.050;7.800;2022-10-17T03:08:58;7.00;;;2.43;;
6642;SDS011;3357;48.050;7.800;2022-10-17T03:11:24;12.70;;;1.97;;
6642;SDS011;3357;48.050;7.800;2022-10-17T03:13:50;8.83;;;2.03;;
6642;SDS011;3357;48.050;7.800;2022-10-17T03:16:15;4.30;;;1.53;;
6642;SDS011;3357;48.050;7.800;2022-10-17T03:18:41;14.77;;;2.33;;
6642;SDS011;3357;48.050;7.800;2022-10-17T03:21:06;1.87;;;1.67;;
6642;SDS011;3357;48.050;7.800;2022-10-17T03:23:31;21.37;;;2.10;;
6642;SDS011;3357;48.050;7.800;2022-10-17T03:25:57;3.30;;;1.80;;
6642;SDS011;3357;48.050;7.800;2022-10-17T03:28:22;6.23;;;1.83;;
6642;SDS011;3357;48.050;7.800;2022-10-17T03:30:48;5.20;;;1.70;;
6642;SDS011;3357;48.050;7.800;2022-10-17T03:33:13;2.53;;;1.30;;
6642;SDS011;3357;48.050;7.800;2022-10-17T03:35:38;1.40;;;1.40;;
6642;SDS011;3357;48.050;7.800;2022-10-17T03:38:04;1.60;;;1.50;;
6642;SDS011;3357;48.050;7.800;2022-10-17T03:40:29;2.20;;;1.67;;
6642;SDS011;3357;48.050;7.800;2022-10-17T03:42:54;3.33;;;1.20;;
6642;SDS011;3357;48.050;7.800;2022-10-17T03:45:21;5.90;;;1.47;;
6642;SDS011;3357;48.050;7.800;2022-10-17T03:47:46;3.23;;;1.60;;
6642;SDS011;3357;48.050;7.800;2022-10-17T03:50:11;3.80;;;1.57;;
6642;SDS011;3357;48.050;7.800;2022-10-17T03:52:36;3.43;;;1.30;;
6642;SDS011;3357;48.050;7.800;2022-10-17T03:55:02;1.70;;;1.60;;
6642;SDS011;3357;48.050;7.800;2022-10-17T03:57:27;9.17;;;1.67;;
6642;SDS011;3357;48.050;7.800;2022-10-17T03:59:52;8.93;;;2.13;;
6642;SDS011;3357;48.050;7.800;2022-10-17T04:02:18;3.40;;;1.67;;
6642;SDS011;3357;48.050;7.800;2022-10-17T04:04:43;2.90;;;1.50;;
6642;SDS011;3357;48.050;7.800;2022-10-17T04:07:08;2.40;;;1.37;;
6642;SDS011;3357;48.050;7.800;2022-10-17T04:09:34;2.10;;;2.00;;
6642;SDS011;3357;48.050;7.800;2022-10-17T04:11:59;3.23;;;1.50;;
6642;SDS011;3357;48.050;7.800;2022-10-17T04:14:24;4.67;;;1.80;;
6642;SDS011;3357;48.050;7.800;2022-10-17T04:16:50;1.87;;;1.77;;
6642;SDS011;3357;48.050;7.800;2022-10-17T04:19:15;1.80;;;1.70;;
6642;SDS011;3357;48.050;7.800;2022-10-17T04:21:40;1.80;;;1.70;;
6642;SDS011;3357;48.050;7.800;2022-10-17T04:24:05;1.70;;;1.60;;
6642;SDS011;3357;48.050;7.800;2022-10-17T04:26:32;3.80;;;2.20;;
6642;SDS011;3357;48.050;7.800;2022-10-17T04:28:58;2.03;;;1.90;;
6642;SDS011;3357;48.050;7.800;2022-10-17T04:31:23;2.00;;;1.90;;
6642;SDS011;3357;48.050;7.800;2022-10-17T04:33:49;3.97;;;1.87;;
6642;SDS011;3357;48.050;7.800;2022-10-17T04:36:15;1.87;;;1.73;;
6642;SDS011;3357;48.050;7.800;2022-10-17T04:38:43;5.60;;;2.07;;
6642;SDS011;3357;48.050;7.800;2022-10-17T04:41:10;2.23;;;2.13;;
6642;SDS011;3357;48.050;7.800;2022-10-17T04:43:37;4.53;;;1.67;;
6642;SDS011;3357;48.050;7.800;2022-10-17T04:46:05;20.23;;;2.73;;
6642;SDS011;3357;48.050;7.800;2022-10-17T04:48:31;3.33;;;2.33;;
6642;SDS011;3357;48.050;7.800;2022-10-17T04:51:01;3.30;;;3.00;;
6642;SDS011;3357;48.050;7.800;2022-10-17T04:53:28;3.63;;;3.30;;
6642;SDS011;3357;48.050;7.800;2022-10-17T04:55:55;6.17;;;2.87;;
6642;SDS011;3357;48.050;7.800;2022-10-17T04:58:20;4.90;;;2.70;;
6642;SDS011;3357;48.050;7.800;2022-10-17T05:00:45;7.73;;;3.40;;
6642;SDS011;3357;48.050;7.800;2022-10-17T05:03:11;3.33;;;2.73;;
6642;SDS011;3357;48.050;7.800;2022-10-17T05:05:37;2.60;;;2.40;;
6642;SDS011;3357;48.050;7.800;2022-10-17T05:08:10;2.93;;;2.00;;
6642;SDS011;3357;48.050;7.800;2022-10-17T05:10:36;8.60;;;2.63;;
6642;SDS011;3357;48.050;7.800;2022-10-17T05:13:02;6.87;;;3.50;;
6642;SDS011;3357;48.050;7.800;2022-10-17T05:15:28;3.43;;;2.70;;
6642;SDS011;3357;48.050;7.800;2022-10-17T05:17:54;7.53;;;2.97;;
6642;SDS011;3357;48.050;7.800;2022-10-17T05:20:20;7.83;;;3.63;;
6642;SDS011;3357;48.050;7.800;2022-10-17T05:22:46;8.23;;;3.00;;
6642;SDS011;3357;48.050;7.800;2022-10-17T05:27:39;7.33;;;2.43;;
6642;SDS011;3357;48.050;7.800;2022-10-17T05:30:05;10.80;;;3.50;;
6642;SDS011;3357;48.050;7.800;2022-10-17T05:32:34;5.53;;;3.43;;
6642;SDS011;3357;48.050;7.800;2022-10-17T05:34:59;8.17;;;3.20;;
6642;SDS011;3357;48.050;7.800;2022-10-17T05:37:25;4.47;;;2.80;;
6642;SDS011;3357;48.050;7.800;2022-10-17T05:39:50;16.50;;;2.97;;
6642;SDS011;3357;48.050;7.800;2022-10-17T05:42:15;12.63;;;2.90;;
6642;SDS011;3357;48.050;7.800;2022-10-17T05:44:41;9.33;;;2.90;;
6642;SDS011;3357;48.050;7.800;2022-10-17T05:47:07;4.13;;;3.10;;
6642;SDS011;3357;48.050;7.800;2022-10-17T05:49:32;9.40;;;2.90;;
6642;SDS011;3357;48.050;7.800;2022-10-17T05:51:59;9.63;;;3.63;;
6642;SDS011;3357;48.050;7.800;2022-10-17T05:54:25;7.97;;;2.93;;
6642;SDS011;3357;48.050;7.800;2022-10-17T05:56:51;3.30;;;3.00;;
6642;SDS011;3357;48.050;7.800;2022-10-17T05:59:17;6.97;;;2.83;;
6642;SDS011;3357;48.050;7.800;2022-10-17T06:01:42;8.27;;;2.87;;
6642;SDS011;3357;48.050;7.800;2022-10-17T06:04:07;7.40;;;3.50;;
6642;SDS011;3357;48.050;7.800;2022-10-17T06:06:34;9.73;;;3.40;;
6642;SDS011;3357;48.050;7.800;2022-10-17T06:09:03;10.80;;;4.17;;
6642;SDS011;3357;48.050;7.800;2022-10-17T06:11:28;9.27;;;3.00;;
6642;SDS011;3357;48.050;7.800;2022-10-17T06:16:26;4.97;;;3.37;;
6642;SDS011;3357;48.050;7.800;2022-10-17T06:18:52;7.47;;;2.90;;
6642;SDS011;3357;48.050;7.800;2022-10-17T06:21:22;13.87;;;3.20;;
6642;SDS011;3357;48.050;7.800;2022-10-17T06:23:49;9.73;;;3.67;;
6642;SDS011;3357;48.050;7.800;2022-10-17T06:26:14;12.00;;;3.57;;
6642;SDS011;3357;48.050;7.800;2022-10-17T06:28:42;7.93;;;2.90;;
6642;SDS011;3357;48.050;7.800;2022-10-17T06:31:08;3.33;;;3.00;;
6642;SDS011;3357;48.050;7.800;2022-10-17T06:36:07;9.43;;;3.67;;
6642;SDS011;3357;48.050;7.800;2022-10-17T06:38:34;7.20;;;3.50;;
6642;SDS011;3357;48.050;7.800;2022-10-17T06:41:08;14.00;;;3.83;;
6642;SDS011;3357;48.050;7.800;2022-10-17T06:43:37;8.37;;;4.20;;
6642;SDS011;3357;48.050;7.800;2022-10-17T06:46:03;10.90;;;4.10;;
6642;SDS011;3357;48.050;7.800;2022-10-17T06:48:29;9.40;;;4.77;;
6642;SDS011;3357;48.050;7.800;2022-10-17T06:50:59;11.57;;;4.17;;
6642;SDS011;3357;48.050;7.800;2022-10-17T06:53:28;18.67;;;5.07;;
6642;SDS011;3357;48.050;7.800;2022-10-17T06:55:54;14.17;;;4.63;;
6642;SDS011;3357;48.050;7.800;2022-10-17T06:58:22;11.00;;;4.47;;
6642;SDS011;3357;48.050;7.800;2022-10-17T07:00:48;5.67;;;4.17;;
6642;SDS011;3357;48.050;7.800;2022-10-17T07:03:14;7.93;;;3.97;;
6642;SDS011;3357;48.050;7.800;2022-10-17T07:05:39;9.67;;;4.43;;
6642;SDS011;3357;48.050;7.800;2022-10-17T07:08:05;12.03;;;4.93;;
6642;SDS011;3357;48.050;7.800;2022-10-17T07:10:30;16.13;;;4.50;;
6642;SDS011;3357;48.050;7.800;2022-10-17T07:13:02;7.43;;;4.23;;
6642;SDS011;3357;48.050;7.800;2022-10-17T07:15:27;10.23;;;4.10;;
6642;SDS011;3357;48.050;7.800;2022-10-17T07:17:52;12.37;;;4.30;;
6642;SDS011;3357;48.050;7.800;2022-10-17T07:20:17;6.53;;;3.80;;
6642;SDS011;3357;48.050;7.800;2022-10-17T07:22:43;7.80;;;4.83;;
6642;SDS011;3357;48.050;7.800;2022-10-17T07:25:11;10.87;;;4.10;;
6642;SDS011;3357;48.050;7.800;2022-10-17T07:27:36;12.10;;;3.30;;
6642;SDS011;3357;48.050;7.800;2022-10-17T07:30:02;6.43;;;4.10;;
6642;SDS011;3357;48.050;7.800;2022-10-17T07:32:28;9.73;;;4.07;;
6642;SDS011;3357;48.050;7.800;2022-10-17T07:34:55;4.57;;;3.93;;
6642;SDS011;3357;48.050;7.800;2022-10-17T07:37:21;10.13;;;4.50;;
6642;SDS011;3357;48.050;7.800;2022-10-17T07:39:46;7.17;;;4.50;;
6642;SDS011;3357;48.050;7.800;2022-10-17T07:42:19;5.93;;;3.93;;
6642;SDS011;3357;48.050;7.800;2022-10-17T07:44:45;7.93;;;3.83;;
6642;SDS011;3357;48.050;7.800;2022-10-17T07:47:11;6.80;;;4.27;;
6642;SDS011;3357;48.050;7.800;2022-10-17T07:49:40;7.13;;;4.90;;
6642;SDS011;3357;48.050;7.800;2022-10-17T07:52:11;4.33;;;3.93;;
6642;SDS011;3357;48.050;7.800;2022-10-17T07:54:37;5.10;;;4.50;;
6642;SDS011;3357;48.050;7.800;2022-10-17T07:57:02;9.77;;;4.00;;
6642;SDS011;3357;48.050;7.800;2022-10-17T07:59:28;9.43;;;3.53;;
6642;SDS011;3357;48.050;7.800;2022-10-17T08:01:57;10.57;;;3.67;;
6642;SDS011;3357;48.050;7.800;2022-10-17T08:04:23;4.43;;;4.03;;
6642;SDS011;3357;48.050;7.800;2022-10-17T08:06:49;8.80;;;4.30;;
6642;SDS011;3357;48.050;7.800;2022-10-17T08:09:15;5.47;;;3.90;;
6642;SDS011;3357;48.050;7.800;2022-10-17T08:11:42;3.50;;;3.27;;
6642;SDS011;3357;48.050;7.800;2022-10-17T08:14:08;5.00;;;3.57;;
6642;SDS011;3357;48.050;7.800;2022-10-17T08:16:34;11.40;;;3.50;;
6642;SDS011;3357;48.050;7.800;2022-10-17T08:19:00;6.80;;;3.20;;
6642;SDS011;3357;48.050;7.800;2022-10-17T08:21:26;21.53;;;3.30;;
6642;SDS011;3357;48.050;7.800;2022-10-17T08:23:52;7.63;;;2.97;;
6642;SDS011;3357;48.050;7.800;2022-10-17T08:26:18;3.63;;;2.87;;
6642;SDS011;3357;48.050;7.800;2022-10-17T08:28:46;10.70;;;3.20;;
6642;SDS011;3357;48.050;7.800;2022-10-17T08:31:14;8.57;;;3.00;;
6642;SDS011;3357;48.050;7.800;2022-10-17T08:33:44;7.97;;;3.03;;
6642;SDS011;3357;48.050;7.800;2022-10-17T08:36:11;3.17;;;2.87;;
6642;SDS011;3357;48.050;7.800;2022-10-17T08:38:38;2.83;;;2.43;;
6642;SDS011;3357;48.050;7.800;2022-10-17T08:41:32;5.87;;;2.73;;
6642;SDS011;3357;48.050;7.800;2022-10-17T08:44:04;6.30;;;2.93;;
6642;SDS011;3357;48.050;7.800;2022-10-17T08:46:46;5.90;;;2.87;;
6642;SDS011;3357;48.050;7.800;2022-10-17T08:52:15;5.13;;;2.97;;
6642;SDS011;3357;48.050;7.800;2022-10-17T08:54:49;8.00;;;3.00;;
6642;SDS011;3357;48.050;7.800;2022-10-17T08:57:15;6.10;;;2.50;;
6642;SDS011;3357;48.050;7.800;2022-10-17T08:59:48;8.37;;;3.10;;
6642;SDS011;3357;48.050;7.800;2022-10-17T09:12:30;5.40;;;2.60;;
6642;SDS011;3357;48.050;7.800;2022-10-17T09:18:14;3.20;;;2.87;;
6642;SDS011;3357;48.050;7.800;2022-10-17T09:20:46;6.67;;;2.93;;
6642;SDS011;3357;48.050;7.800;2022-10-17T09:25:53;12.90;;;2.70;;
6642;SDS011;3357;48.050;7.800;2022-10-17T09:28:24;9.57;;;2.70;;
6642;SDS011;3357;48.050;7.800;2022-10-17T09:33:41;4.30;;;2.60;;
6642;SDS011;3357;48.050;7.800;2022-10-17T09:36:10;6.13;;;2.30;;
6642;SDS011;3357;48.050;7.800;2022-10-17T09:38:47;2.77;;;2.60;;
6642;SDS011;3357;48.050;7.800;2022-10-17T09:41:19;5.47;;;3.07;;
6642;SDS011;3357;48.050;7.800;2022-10-17T09:43:45;11.30;;;2.10;;
6642;SDS011;3357;48.050;7.800;2022-10-17T09:46:33;3.57;;;2.17;;
6642;SDS011;3357;48.050;7.800;2022-10-17T09:49:05;6.03;;;2.30;;
6642;SDS011;3357;48.050;7.800;2022-10-17T09:51:32;2.90;;;1.80;;
6642;SDS011;3357;48.050;7.800;2022-10-17T09:54:02;2.30;;;1.90;;
6642;SDS011;3357;48.050;7.800;2022-10-17T09:56:29;5.03;;;2.37;;
6642;SDS011;3357;48.050;7.800;2022-10-17T09:58:56;6.33;;;2.53;;
6642;SDS011;3357;48.050;7.800;2022-10-17T10:01:29;2.43;;;1.90;;
6642;SDS011;3357;48.050;7.800;2022-10-17T10:09:32;9.90;;;2.30;;
6642;SDS011;3357;48.050;7.800;2022-10-17T10:11:59;7.33;;;2.63;;
6642;SDS011;3357;48.050;7.800;2022-10-17T10:16:58;10.93;;;2.33;;
6642;SDS011;3357;48.050;7.800;2022-10-17T10:19:27;3.90;;;3.10;;
6642;SDS011;3357;48.050;7.800;2022-10-17T10:21:55;8.03;;;1.87;;
6642;SDS011;3357;48.050;7.800;2022-10-17T10:24:21;5.53;;;1.90;;
6642;SDS011;3357;48.050;7.800;2022-10-17T10:26:51;3.53;;;2.07;;
6642;SDS011;3357;48.050;7.800;2022-10-17T10:34:52;6.23;;;1.70;;
6642;SDS011;3357;48.050;7.800;2022-10-17T10:37:24;5.00;;;1.53;;
6642;SDS011;3357;48.050;7.800;2022-10-17T10:40:00;6.63;;;1.83;;
6642;SDS011;3357;48.050;7.800;2022-10-17T10:42:28;1.60;;;1.50;;
6642;SDS011;3357;48.050;7.800;2022-10-17T10:44:58;4.87;;;1.40;;
6642;SDS011;3357;48.050;7.800;2022-10-17T10:47:28;3.17;;;1.63;;
6642;SDS011;3357;48.050;7.800;2022-10-17T10:55:39;4.73;;;1.40;;
6642;SDS011;3357;48.050;7.800;2022-10-17T11:01:51;4.70;;;1.30;;
6642;SDS011;3357;48.050;7.800;2022-10-17T11:06:44;4.83;;;1.67;;
6642;SDS011;3357;48.050;7.800;2022-10-17T11:09:12;7.60;;;1.60;;
6642;SDS011;3357;48.050;7.800;2022-10-17T11:17:21;3.30;;;1.63;;
6642;SDS011;3357;48.050;7.800;2022-10-17T11:20:06;3.60;;;1.33;;
6642;SDS011;3357;48.050;7.800;2022-10-17T11:27:37;2.90;;;1.33;;
6642;SDS011;3357;48.050;7.800;2022-10-17T11:30:03;3.80;;;1.10;;
6642;SDS011;3357;48.050;7.800;2022-10-17T11:32:36;5.07;;;1.13;;
6642;SDS011;3357;48.050;7.800;2022-10-17T11:35:06;2.80;;;1.03;;
6642;SDS011;3357;48.050;7.800;2022-10-17T11:37:40;6.30;;;1.00;;
6642;SDS011;3357;48.050;7.800;2022-10-17T11:40:14;4.30;;;1.20;;
6642;SDS011;3357;48.050;7.800;2022-10-17T11:42:58;4.17;;;1.20;;
6642;SDS011;3357;48.050;7.800;2022-10-17T11:45:28;8.90;;;1.07;;
6642;SDS011;3357;48.050;7.800;2022-10-17T11:48:20;1.47;;;1.00;;
6642;SDS011;3357;48.050;7.800;2022-10-17T11:56:27;1.47;;;1.10;;
6642;SDS011;3357;48.050;7.800;2022-10-17T11:59:17;7.53;;;1.07;;
6642;SDS011;3357;48.050;7.800;2022-10-17T12:02:00;3.20;;;1.20;;
6642;SDS011;3357;48.050;7.800;2022-10-17T12:07:42;1.40;;;1.23;;
6642;SDS011;3357;48.050;7.800;2022-10-17T12:13:45;2.20;;;1.03;;
6642;SDS011;3357;48.050;7.800;2022-10-17T12:18:42;8.63;;;1.20;;
6642;SDS011;3357;48.050;7.800;2022-10-17T12:21:07;4.77;;;1.00;;
6642;SDS011;3357;48.050;7.800;2022-10-17T12:23:33;1.20;;;1.10;;
6642;SDS011;3357;48.050;7.800;2022-10-17T12:26:01;1.10;;;1.00;;
6642;SDS011;3357;48.050;7.800;2022-10-17T12:28:44;1.40;;;1.20;;
6642;SDS011;3357;48.050;7.800;2022-10-17T12:33:50;4.57;;;0.97;;
6642;SDS011;3357;48.050;7.800;2022-10-17T12:38:44;0.90;;;0.90;;
6642;SDS011;3357;48.050;7.800;2022-10-17T12:47:26;0.97;;;0.97;;
6642;SDS011;3357;48.050;7.800;2022-10-17T12:49:52;1.80;;;0.90;;
6642;SDS011;3357;48.050;7.800;2022-10-17T12:52:21;1.90;;;0.90;;
6642;SDS011;3357;48.050;7.800;2022-10-17T12:55:23;2.77;;;0.90;;
6642;SDS011;3357;48.050;7.800;2022-10-17T13:03:19;3.70;;;1.13;;
6642;SDS011;3357;48.050;7.800;2022-10-17T13:05:51;2.83;;;1.47;;
6642;SDS011;3357;48.050;7.800;2022-10-17T13:08:22;3.57;;;0.80;;
6642;SDS011;3357;48.050;7.800;2022-10-17T13:10:52;1.97;;;0.90;;
6642;SDS011;3357;48.050;7.800;2022-10-17T13:16:05;0.90;;;0.90;;
6642;SDS011;3357;48.050;7.800;2022-10-17T13:18:31;4.70;;;0.90;;
6642;SDS011;3357;48.050;7.800;2022-10-17T13:21:04;1.10;;;0.87;;
6642;SDS011;3357;48.050;7.800;2022-10-17T13:23:38;1.00;;;1.00;;
6642;SDS011;3357;48.050;7.800;2022-10-17T13:26:04;1.60;;;1.07;;
6642;SDS011;3357;48.050;7.800;2022-10-17T13:28:42;1.67;;;0.90;;
6642;SDS011;3357;48.050;7.800;2022-10-17T13:31:27;3.23;;;1.00;;
6642;SDS011;3357;48.050;7.800;2022-10-17T13:33:56;10.63;;;1.20;;
6642;SDS011;3357;48.050;7.800;2022-10-17T13:36:25;2.63;;;1.00;;
6642;SDS011;3357;48.050;7.800;2022-10-17T13:38:51;1.33;;;0.90;;
6642;SDS011;3357;48.050;7.800;2022-10-17T13:41:17;2.10;;;0.90;;
6642;SDS011;3357;48.050;7.800;2022-10-17T13:43:48;1.17;;;1.07;;
6642;SDS011;3357;48.050;7.800;2022-10-17T13:46:27;0.87;;;0.80;;
6642;SDS011;3357;48.050;7.800;2022-10-17T13:48:55;1.10;;;1.00;;
6642;SDS011;3357;48.050;7.800;2022-10-17T13:51:30;5.90;;;1.03;;
6642;SDS011;3357;48.050;7.800;2022-10-17T13:53:57;1.33;;;1.00;;
6642;SDS011;3357;48.050;7.800;2022-10-17T13:56:23;4.20;;;1.20;;
6642;SDS011;3357;48.050;7.800;2022-10-17T13:58:52;1.97;;;1.00;;
6642;SDS011;3357;48.050;7.800;2022-10-17T14:01:26;2.10;;;0.80;;
6642;SDS011;3357;48.050;7.800;2022-10-17T14:03:53;3.90;;;1.10;;
6642;SDS011;3357;48.050;7.800;2022-10-17T14:06:20;5.57;;;1.30;;
6642;SDS011;3357;48.050;7.800;2022-10-17T14:08:48;4.40;;;1.00;;
6642;SDS011;3357;48.050;7.800;2022-10-17T14:11:26;5.20;;;1.10;;
6642;SDS011;3357;48.050;7.800;2022-10-17T14:14:00;2.90;;;1.10;;
6642;SDS011;3357;48.050;7.800;2022-10-17T14:16:49;2.17;;;0.83;;
6642;SDS011;3357;48.050;7.800;2022-10-17T14:19:17;2.90;;;1.17;;
6642;SDS011;3357;48.050;7.800;2022-10-17T14:21:48;1.10;;;0.87;;
6642;SDS011;3357;48.050;7.800;2022-10-17T14:24:48;2.10;;;1.13;;
6642;SDS011;3357;48.050;7.800;2022-10-17T14:29:56;1.50;;;1.10;;
6642;SDS011;3357;48.050;7.800;2022-10-17T14:32:29;6.63;;;1.00;;
6642;SDS011;3357;48.050;7.800;2022-10-17T14:34:57;1.53;;;1.43;;
6642;SDS011;3357;48.050;7.800;2022-10-17T14:40:13;3.13;;;1.47;;
6642;SDS011;3357;48.050;7.800;2022-10-17T14:42:39;2.33;;;1.10;;
6642;SDS011;3357;48.050;7.800;2022-10-17T14:45:06;9.10;;;1.30;;
6642;SDS011;3357;48.050;7.800;2022-10-17T14:47:34;5.00;;;1.30;;
6642;SDS011;3357;48.050;7.800;2022-10-17T14:50:04;6.47;;;1.07;;
6642;SDS011;3357;48.050;7.800;2022-10-17T14:53:17;1.90;;;1.03;;
6642;SDS011;3357;48.050;7.800;2022-10-17T14:55:55;2.10;;;1.93;;
6642;SDS011;3357;48.050;7.800;2022-10-17T14:58:24;7.03;;;1.10;;
6642;SDS011;3357;48.050;7.800;2022-10-17T15:00:53;2.43;;;1.10;;
6642;SDS011;3357;48.050;7.800;2022-10-17T15:03:19;3.80;;;1.17;;
6642;SDS011;3357;48.050;7.800;2022-10-17T15:05:45;1.13;;;1.00;;
6642;SDS011;3357;48.050;7.800;2022-10-17T15:08:14;1.93;;;1.00;;
6642;SDS011;3357;48.050;7.800;2022-10-17T15:10:41;1.77;;;1.07;;
6642;SDS011;3357;48.050;7.800;2022-10-17T15:13:07;6.43;;;1.00;;
6642;SDS011;3357;48.050;7.800;2022-10-17T15:15:33;3.27;;;1.30;;
6642;SDS011;3357;48.050;7.800;2022-10-17T15:17:59;3.00;;;1.13;;
6642;SDS011;3357;48.050;7.800;2022-10-17T15:20:25;7.20;;;1.20;;
6642;SDS011;3357;48.050;7.800;2022-10-17T15:22:55;1.83;;;1.10;;
6642;SDS011;3357;48.050;7.800;2022-10-17T15:25:22;7.70;;;1.33;;
6642;SDS011;3357;48.050;7.800;2022-10-17T15:27:48;1.37;;;1.00;;
6642;SDS011;3357;48.050;7.800;2022-10-17T15:32:50;7.70;;;1.00;;
6642;SDS011;3357;48.050;7.800;2022-10-17T15:35:16;5.03;;;1.37;;
6642;SDS011;3357;48.050;7.800;2022-10-17T15:37:42;2.50;;;1.10;;
6642;SDS011;3357;48.050;7.800;2022-10-17T15:40:12;1.40;;;1.30;;
6642;SDS011;3357;48.050;7.800;2022-10-17T15:42:40;1.50;;;1.13;;
6642;SDS011;3357;48.050;7.800;2022-10-17T15:45:07;4.23;;;1.10;;
6642;SDS011;3357;48.050;7.800;2022-10-17T15:47:33;5.23;;;1.23;;
6642;SDS011;3357;48.050;7.800;2022-10-17T15:49:59;3.37;;;2.07;;
6642;SDS011;3357;48.050;7.800;2022-10-17T15:52:25;4.03;;;1.13;;
6642;SDS011;3357;48.050;7.800;2022-10-17T15:54:51;4.93;;;1.10;;
6642;SDS011;3357;48.050;7.800;2022-10-17T15:57:17;1.70;;;1.13;;
6642;SDS011;3357;48.050;7.800;2022-10-17T15:59:44;3.20;;;3.00;;
6642;SDS011;3357;48.050;7.800;2022-10-17T16:02:13;1.70;;;1.60;;
6642;SDS011;3357;48.050;7.800;2022-10-17T16:04:40;2.77;;;1.10;;
6642;SDS011;3357;48.050;7.800;2022-10-17T16:07:05;3.73;;;1.20;;
6642;SDS011;3357;48.050;7.800;2022-10-17T16:09:31;1.93;;;1.47;;
6642;SDS011;3357;48.050;7.800;2022-10-17T16:11:58;1.83;;;1.20;;
6642;SDS011;3357;48.050;7.800;2022-10-17T16:14:24;1.70;;;1.60;;
6642;SDS011;3357;48.050;7.800;2022-10-17T16:16:50;3.07;;;1.60;;
6642;SDS011;3357;48.050;7.800;2022-10-17T16:19:15;1.20;;;1.20;;
6642;SDS011;3357;48.050;7.800;2022-10-17T16:21:40;2.77;;;1.50;;
6642;SDS011;3357;48.050;7.800;2022-10-17T16:24:08;8.00;;;1.53;;
6642;SDS011;3357;48.050;7.800;2022-10-17T16:26:35;1.27;;;1.20;;
6642;SDS011;3357;48.050;7.800;2022-10-17T16:29:00;2.70;;;1.10;;
6642;SDS011;3357;48.050;7.800;2022-10-17T16:31:28;1.50;;;1.30;;
6642;SDS011;3357;48.050;7.800;2022-10-17T16:33:56;10.73;;;2.00;;
6642;SDS011;3357;48.050;7.800;2022-10-17T16:36:22;7.43;;;2.37;;
6642;SDS011;3357;48.050;7.800;2022-10-17T16:38:47;4.20;;;2.43;;
6642;SDS011;3357;48.050;7.800;2022-10-17T16:43:50;4.53;;;2.80;;
6642;SDS011;3357;48.050;7.800;2022-10-17T16:46:17;5.33;;;2.30;;
6642;SDS011;3357;48.050;7.800;2022-10-17T16:48:43;7.30;;;2.50;;
6642;SDS011;3357;48.050;7.800;2022-10-17T16:51:09;2.67;;;1.87;;
6642;SDS011;3357;48.050;7.800;2022-10-17T16:53:35;3.37;;;1.87;;
6642;SDS011;3357;48.050;7.800;2022-10-17T16:56:04;3.03;;;1.87;;
6642;SDS011;3357;48.050;7.800;2022-10-17T16:58:30;2.17;;;1.90;;
6642;SDS011;3357;48.050;7.800;2022-10-17T17:00:59;2.70;;;2.23;;
6642;SDS011;3357;48.050;7.800;2022-10-17T17:03:25;4.50;;;2.60;;
6642;SDS011;3357;48.050;7.800;2022-10-17T17:05:51;2.90;;;2.10;;
6642;SDS011;3357;48.050;7.800;2022-10-17T17:08:16;3.23;;;2.10;;
6642;SDS011;3357;48.050;7.800;2022-10-17T17:10:43;6.40;;;2.13;;
6642;SDS011;3357;48.050;7.800;2022-10-17T17:13:09;8.50;;;2.37;;
6642;SDS011;3357;48.050;7.800;2022-10-17T17:15:35;4.00;;;1.83;;
6642;SDS011;3357;48.050;7.800;2022-10-17T17:18:00;2.83;;;2.63;;
6642;SDS011;3357;48.050;7.800;2022-10-17T17:20:25;5.63;;;3.10;;
6642;SDS011;3357;48.050;7.800;2022-10-17T17:22:51;9.10;;;2.87;;
6642;SDS011;3357;48.050;7.800;2022-10-17T17:25:16;7.53;;;2.80;;
6642;SDS011;3357;48.050;7.800;2022-10-17T17:27:41;3.13;;;2.80;;
6642;SDS011;3357;48.050;7.800;2022-10-17T17:30:07;6.90;;;2.73;;
6642;SDS011;3357;48.050;7.800;2022-10-17T17:32:32;4.67;;;3.10;;
6642;SDS011;3357;48.050;7.800;2022-10-17T17:34:59;8.07;;;4.03;;
6642;SDS011;3357;48.050;7.800;2022-10-17T17:37:24;7.47;;;4.80;;
6642;SDS011;3357;48.050;7.800;2022-10-17T17:39:50;11.07;;;5.90;;
6642;SDS011;3357;48.050;7.800;2022-10-17T17:42:15;17.50;;;3.80;;
6642;SDS011;3357;48.050;7.800;2022-10-17T17:44:40;5.40;;;3.10;;
6642;SDS011;3357;48.050;7.800;2022-10-17T17:47:05;6.00;;;3.40;;
6642;SDS011;3357;48.050;7.800;2022-10-17T17:49:31;5.30;;;3.00;;